Ship Status Report: callsign BP3015

sailwx.info

Track history (hours):
 
Tides and Currents Weather Stations Pressure Air Temp Water Temp Dewpoint Dewpoint Depression Visibility Wind Speed Wind Dir Waves Ship Positions

Oceanographic research ship ()

Last reported at 2017-Aug-20 08:27 UTC. Time now 2017-Aug-20 09:50 UTC.
Position N 23°22' E 119°36'.

Length 39 m; draft 2.8 m.

Type: Pleasure craft. MMSI: 416922000.

Date/timePositionNaut miles runAvg speedWind from/ knotsBaromVisibWave heightAir tempDewpointWater temp
2017-Aug-20 08:27N 23°22' E 119°36'46 8.9
2017-Aug-20 03:18N 22°47' E 120°07'3 9.3
2017-Aug-20 03:00N 22°44' E 120°09'5 9.9
2017-Aug-20 02:30N 22°41' E 120°12'5 9.9
2017-Aug-20 02:00N 22°37' E 120°16'1 1.8
2017-Aug-20 01:30N 22°37' E 120°17'0 0.0
2017-Aug-20 01:00N 22°37' E 120°17'0 0.0
2017-Aug-20 00:30N 22°37' E 120°17'0 0.0
2017-Aug-20 00:00N 22°37' E 120°17'0 0.0
2017-Aug-19 23:30N 22°37' E 120°17'0 0.0
2017-Aug-19 23:00N 22°37' E 120°17'0 0.0
2017-Aug-19 22:30N 22°37' E 120°17'0 0.0
2017-Aug-19 22:00N 22°37' E 120°17'0 0.0
2017-Aug-19 21:30N 22°37' E 120°17'0 0.0
2017-Aug-19 21:00N 22°37' E 120°17'0 0.0
2017-Aug-19 20:30N 22°37' E 120°17'0 0.0
2017-Aug-19 20:00N 22°37' E 120°17'0 0.0
2017-Aug-19 19:30N 22°37' E 120°17'0 0.0
2017-Aug-19 19:00N 22°37' E 120°17'0 0.0
2017-Aug-19 18:30N 22°37' E 120°17'0 0.0
2017-Aug-19 18:00N 22°37' E 120°17'0 0.0
2017-Aug-19 17:30N 22°37' E 120°17'0 0.0
2017-Aug-19 17:00N 22°37' E 120°17'0 0.0
2017-Aug-19 16:30N 22°37' E 120°17'0 0.0
2017-Aug-19 16:00N 22°37' E 120°17'0 0.0
2017-Aug-19 15:30N 22°37' E 120°17'0 0.0
2017-Aug-19 15:00N 22°37' E 120°17'0 0.0
2017-Aug-19 14:00N 22°37' E 120°17'0 0.0
2017-Aug-19 13:30N 22°37' E 120°17'0 0.0
2017-Aug-19 13:00N 22°37' E 120°17'0 0.0
2017-Aug-19 12:30N 22°37' E 120°17'0 0.0
2017-Aug-19 12:00N 22°37' E 120°17'0 0.0
2017-Aug-19 11:30N 22°37' E 120°17'0 0.0
2017-Aug-19 11:00N 22°37' E 120°17'0 0.0
2017-Aug-19 10:30N 22°37' E 120°17'0 0.0
2017-Aug-19 10:00N 22°37' E 120°17'0 0.0
2017-Aug-19 09:30N 22°37' E 120°17'0 0.0
2017-Aug-19 09:00N 22°37' E 120°17'0 0.0
2017-Aug-19 08:30N 22°37' E 120°17'0 0.0
2017-Aug-19 08:00N 22°37' E 120°17'0 0.0
2017-Aug-19 07:30N 22°37' E 120°17'0 0.0
2017-Aug-19 07:00N 22°37' E 120°17'  
2017-Aug-16 12:30N 24°03' E 119°28'3 5.3
2017-Aug-16 11:51N 23°60' E 119°28'2 5.3
2017-Aug-16 11:24N 23°57' E 119°28'  
Track history (hours):
 
Tides and Currents Weather Stations Pressure Air Temp Water Temp Dewpoint Dewpoint Depression Visibility Wind Speed Wind Dir Waves Ship Positions

Oceanographic research ship ()

Last reported at 2017-Aug-20 08:27 UTC. Time now 2017-Aug-20 09:50 UTC.
Position N 23°22' E 119°36'.

Length 39 m; draft 2.8 m.

Type: Pleasure craft. MMSI: 416922000.

Date/timePositionNaut miles runAvg speedWind from/ knotsBaromVisibWave heightAir tempDewpointWater temp
2017-Aug-20 08:27N 23°22' E 119°36'46 8.9
2017-Aug-20 03:18N 22°47' E 120°07'3 9.3
2017-Aug-20 03:00N 22°44' E 120°09'5 9.9
2017-Aug-20 02:30N 22°41' E 120°12'5 9.9
2017-Aug-20 02:00N 22°37' E 120°16'1 1.8
2017-Aug-20 01:30N 22°37' E 120°17'0 0.0
2017-Aug-20 01:00N 22°37' E 120°17'0 0.0
2017-Aug-20 00:30N 22°37' E 120°17'0 0.0
2017-Aug-20 00:00N 22°37' E 120°17'0 0.0
2017-Aug-19 23:30N 22°37' E 120°17'0 0.0
2017-Aug-19 23:00N 22°37' E 120°17'0 0.0
2017-Aug-19 22:30N 22°37' E 120°17'0 0.0
2017-Aug-19 22:00N 22°37' E 120°17'0 0.0
2017-Aug-19 21:30N 22°37' E 120°17'0 0.0
2017-Aug-19 21:00N 22°37' E 120°17'0 0.0
2017-Aug-19 20:30N 22°37' E 120°17'0 0.0
2017-Aug-19 20:00N 22°37' E 120°17'0 0.0
2017-Aug-19 19:30N 22°37' E 120°17'0 0.0
2017-Aug-19 19:00N 22°37' E 120°17'0 0.0
2017-Aug-19 18:30N 22°37' E 120°17'0 0.0
2017-Aug-19 18:00N 22°37' E 120°17'0 0.0
2017-Aug-19 17:30N 22°37' E 120°17'0 0.0
2017-Aug-19 17:00N 22°37' E 120°17'0 0.0
2017-Aug-19 16:30N 22°37' E 120°17'0 0.0
2017-Aug-19 16:00N 22°37' E 120°17'0 0.0
2017-Aug-19 15:30N 22°37' E 120°17'0 0.0
2017-Aug-19 15:00N 22°37' E 120°17'0 0.0
2017-Aug-19 14:00N 22°37' E 120°17'0 0.0
2017-Aug-19 13:30N 22°37' E 120°17'0 0.0
2017-Aug-19 13:00N 22°37' E 120°17'0 0.0
2017-Aug-19 12:30N 22°37' E 120°17'0 0.0
2017-Aug-19 12:00N 22°37' E 120°17'0 0.0
2017-Aug-19 11:30N 22°37' E 120°17'0 0.0
2017-Aug-19 11:00N 22°37' E 120°17'0 0.0
2017-Aug-19 10:30N 22°37' E 120°17'0 0.0
2017-Aug-19 10:00N 22°37' E 120°17'0 0.0
2017-Aug-19 09:30N 22°37' E 120°17'0 0.0
2017-Aug-19 09:00N 22°37' E 120°17'0 0.0
2017-Aug-19 08:30N 22°37' E 120°17'0 0.0
2017-Aug-19 08:00N 22°37' E 120°17'0 0.0
2017-Aug-19 07:30N 22°37' E 120°17'0 0.0
2017-Aug-19 07:00N 22°37' E 120°17'  
2017-Aug-16 12:30N 24°03' E 119°28'3 5.3
2017-Aug-16 11:51N 23°60' E 119°28'2 5.3
2017-Aug-16 11:24N 23°57' E 119°28'  

Dump ship's entire track history